createdAt,value
2019-02-19T00:00:14.700Z,18.50
2019-02-19T00:02:43.212Z,17.53
2019-02-19T00:05:11.782Z,16.10
2019-02-19T00:07:40.709Z,16.90
2019-02-19T00:10:09.275Z,14.93
2019-02-19T00:12:37.820Z,14.33
2019-02-19T00:15:08.580Z,14.23
2019-02-19T00:17:37.012Z,14.37
2019-02-19T00:20:05.704Z,15.00
2019-02-19T00:22:34.293Z,13.93
2019-02-19T00:25:02.869Z,14.57
2019-02-19T00:27:31.433Z,14.90
2019-02-19T00:30:00.005Z,14.73
2019-02-19T00:32:28.650Z,16.10
2019-02-19T00:34:57.193Z,15.10
2019-02-19T00:37:26.067Z,15.57
2019-02-19T00:39:54.608Z,14.97
2019-02-19T00:42:23.170Z,14.33
2019-02-19T00:44:51.757Z,15.80
2019-02-19T00:47:20.310Z,15.63
2019-02-19T00:49:48.892Z,15.07
2019-02-19T00:52:17.479Z,15.03
2019-02-19T00:54:46.057Z,15.27
2019-02-19T00:57:14.636Z,16.67
2019-02-19T00:59:43.186Z,15.83
2019-02-19T01:02:11.774Z,15.17
2019-02-19T01:04:40.415Z,15.90
2019-02-19T01:07:09.136Z,15.50
2019-02-19T01:09:37.713Z,15.70
2019-02-19T01:12:06.334Z,16.27
2019-02-19T01:14:34.880Z,15.67
2019-02-19T01:17:03.468Z,15.33
2019-02-19T01:19:32.120Z,15.70
2019-02-19T01:22:00.628Z,15.40
2019-02-19T01:24:29.198Z,16.03
2019-02-19T01:26:57.762Z,16.40
2019-02-19T01:29:26.328Z,15.60
2019-02-19T01:31:54.890Z,15.07
2019-02-19T01:34:23.446Z,14.87
2019-02-19T01:36:52.041Z,15.00
2019-02-19T01:39:20.926Z,15.43
2019-02-19T01:41:49.453Z,14.97
2019-02-19T01:44:18.019Z,14.90
2019-02-19T01:46:46.597Z,15.80
2019-02-19T01:49:15.474Z,15.10
2019-02-19T01:51:44.350Z,17.80
2019-02-19T01:54:12.843Z,15.37
2019-02-19T01:56:41.335Z,14.97
2019-02-19T01:59:09.890Z,15.63
2019-02-19T02:01:38.410Z,14.87
2019-02-19T02:04:06.976Z,14.20
2019-02-19T02:06:35.527Z,15.50
2019-02-19T02:09:05.099Z,15.10
2019-02-19T02:11:33.668Z,14.50
2019-02-19T02:14:01.996Z,15.67
2019-02-19T02:16:30.546Z,14.53
2019-02-19T02:18:59.145Z,15.77
2019-02-19T02:21:28.053Z,13.73
2019-02-19T02:23:56.837Z,15.57
2019-02-19T02:26:26.051Z,15.30
2019-02-19T02:28:54.930Z,14.53
2019-02-19T02:31:23.452Z,14.10
2019-02-19T02:33:52.016Z,15.97
2019-02-19T02:36:20.573Z,14.13
2019-02-19T02:38:49.143Z,14.77
2019-02-19T02:41:17.700Z,15.20
2019-02-19T02:43:46.185Z,14.20
2019-02-19T02:46:14.772Z,14.47
2019-02-19T02:48:43.317Z,14.53
2019-02-19T02:51:11.832Z,14.37
2019-02-19T02:53:40.401Z,14.47
2019-02-19T02:56:08.971Z,14.97
2019-02-19T02:58:37.562Z,14.50
2019-02-19T03:01:06.140Z,14.93
2019-02-19T03:03:34.758Z,14.97
2019-02-19T03:06:05.131Z,15.57
2019-02-19T03:08:33.710Z,14.70
2019-02-19T03:11:02.288Z,14.83
2019-02-19T03:13:30.864Z,14.93
2019-02-19T03:16:02.430Z,16.53
2019-02-19T03:18:30.035Z,14.43
2019-02-19T03:20:58.689Z,15.83
2019-02-19T03:23:27.226Z,16.23
2019-02-19T03:25:55.812Z,15.30
2019-02-19T03:28:24.358Z,15.63
2019-02-19T03:30:52.865Z,15.07
2019-02-19T03:33:21.441Z,16.03
2019-02-19T03:35:50.010Z,15.33
2019-02-19T03:38:18.941Z,14.73
2019-02-19T03:40:47.510Z,16.23
2019-02-19T03:43:16.057Z,16.37
2019-02-19T03:45:44.552Z,15.87
2019-02-19T03:48:13.399Z,14.77
2019-02-19T03:50:41.968Z,16.23
2019-02-19T03:53:10.552Z,13.93
2019-02-19T03:55:39.121Z,15.57
2019-02-19T03:58:07.639Z,15.33
2019-02-19T04:00:36.242Z,15.87
2019-02-19T04:03:04.954Z,16.82
2019-02-19T04:05:33.531Z,16.50
2019-02-19T04:08:02.085Z,15.43
2019-02-19T04:10:30.650Z,15.60
2019-02-19T04:12:59.233Z,15.73
2019-02-19T04:15:28.070Z,16.83
2019-02-19T04:17:56.671Z,17.37
2019-02-19T04:20:25.217Z,17.13
2019-02-19T04:22:53.689Z,16.27
2019-02-19T04:25:22.275Z,17.00
2019-02-19T04:27:50.843Z,17.13
2019-02-19T04:30:19.414Z,17.13
2019-02-19T04:32:47.999Z,16.93
2019-02-19T04:35:16.549Z,15.73
2019-02-19T04:37:45.117Z,15.83
2019-02-19T04:40:13.678Z,19.67
2019-02-19T04:42:42.229Z,17.20
2019-02-19T04:45:10.841Z,17.27
2019-02-19T04:47:39.746Z,16.57
2019-02-19T04:50:09.093Z,16.93
2019-02-19T04:52:37.668Z,15.37
2019-02-19T04:55:06.852Z,16.20
2019-02-19T04:57:35.371Z,16.57
2019-02-19T05:00:05.929Z,19.20
2019-02-19T05:02:34.491Z,17.10
2019-02-19T05:05:03.077Z,17.13
2019-02-19T05:07:31.617Z,15.53
2019-02-19T05:10:00.349Z,17.40
2019-02-19T05:12:29.008Z,14.63
2019-02-19T05:14:57.551Z,16.40
2019-02-19T05:17:26.141Z,14.87
2019-02-19T05:19:54.694Z,15.27
2019-02-19T05:22:23.253Z,15.80
2019-02-19T05:24:51.750Z,15.73
2019-02-19T05:27:20.395Z,15.93
2019-02-19T05:29:48.974Z,15.90
2019-02-19T05:32:17.551Z,16.60
2019-02-19T05:34:46.094Z,15.57
2019-02-19T05:37:14.684Z,19.80
2019-02-19T05:39:43.222Z,17.57
2019-02-19T05:42:11.717Z,15.00
2019-02-19T05:44:40.290Z,15.70
2019-02-19T05:47:08.846Z,14.80
2019-02-19T05:49:37.433Z,14.80
2019-02-19T05:52:06.022Z,14.83
2019-02-19T05:54:34.603Z,16.43
2019-02-19T05:57:03.545Z,15.17
2019-02-19T05:59:32.619Z,14.83
2019-02-19T06:02:01.240Z,16.40
2019-02-19T06:04:29.748Z,15.13
2019-02-19T06:06:58.309Z,16.47
2019-02-19T06:09:26.885Z,14.63
2019-02-19T06:11:55.446Z,14.80
2019-02-19T06:14:24.073Z,14.43
2019-02-19T06:16:58.277Z,13.03
2019-02-19T06:19:22.957Z,13.33
2019-02-19T06:21:51.458Z,13.87
2019-02-19T06:24:20.034Z,15.13
2019-02-19T06:26:48.593Z,13.73
2019-02-19T06:29:17.083Z,13.67
2019-02-19T06:31:45.957Z,12.37
2019-02-19T06:34:14.522Z,12.53
2019-02-19T06:36:43.094Z,13.77
2019-02-19T06:39:11.670Z,12.43
2019-02-19T06:41:40.219Z,12.90
2019-02-19T06:44:08.804Z,12.70
2019-02-19T06:46:37.370Z,14.80
2019-02-19T06:49:05.943Z,13.90
2019-02-19T06:51:34.519Z,12.83
2019-02-19T06:54:03.105Z,12.67
2019-02-19T06:56:31.666Z,12.00
2019-02-19T06:59:00.245Z,11.77
2019-02-19T07:01:39.524Z,11.90
2019-02-19T07:04:09.723Z,12.07
2019-02-19T07:06:38.301Z,12.07
2019-02-19T07:09:07.242Z,11.83
2019-02-19T07:11:35.713Z,11.33
2019-02-19T07:14:04.208Z,11.40
2019-02-19T07:16:32.773Z,11.30
2019-02-19T07:19:01.264Z,11.20
2019-02-19T07:21:29.833Z,11.40
2019-02-19T07:24:04.486Z,11.10
2019-02-19T07:26:28.729Z,11.10
2019-02-19T07:28:57.278Z,10.93
2019-02-19T07:31:25.850Z,10.43
2019-02-19T07:33:54.528Z,10.30
2019-02-19T07:36:23.085Z,10.93
2019-02-19T07:38:52.515Z,10.17
2019-02-19T07:41:21.181Z,10.80
2019-02-19T07:43:49.750Z,10.10
2019-02-19T07:46:18.392Z,11.60
2019-02-19T07:48:46.933Z,10.77
2019-02-19T07:51:15.426Z,9.43
2019-02-19T07:53:43.925Z,9.80
2019-02-19T07:56:12.490Z,9.20
2019-02-19T07:58:40.990Z,9.83
2019-02-19T08:01:09.568Z,9.03
2019-02-19T08:03:38.104Z,9.20
2019-02-19T08:06:06.780Z,9.27
2019-02-19T08:08:35.318Z,9.93
2019-02-19T08:11:03.953Z,8.90
2019-02-19T08:13:32.520Z,10.10
2019-02-19T08:16:01.076Z,8.87
2019-02-19T08:18:29.658Z,9.87
2019-02-19T08:20:58.221Z,8.10
2019-02-19T08:23:26.778Z,9.83
2019-02-19T08:25:55.283Z,8.23
2019-02-19T08:28:24.153Z,9.13
2019-02-19T08:30:52.722Z,9.40
2019-02-19T08:33:21.305Z,8.63
2019-02-19T08:35:50.210Z,8.23
2019-02-19T08:38:18.781Z,9.10
2019-02-19T08:40:47.691Z,8.93
2019-02-19T08:43:16.233Z,8.80
2019-02-19T08:45:44.749Z,9.10
2019-02-19T08:48:13.298Z,8.60
2019-02-19T08:50:41.860Z,9.13
2019-02-19T08:53:10.424Z,8.60
2019-02-19T08:55:38.989Z,8.83
2019-02-19T08:58:07.604Z,8.53
2019-02-19T09:00:36.170Z,8.10
2019-02-19T09:03:04.736Z,9.23
2019-02-19T09:05:33.308Z,8.90
2019-02-19T09:08:01.852Z,8.47
2019-02-19T09:10:30.409Z,8.10
2019-02-19T09:12:58.941Z,7.87
2019-02-19T09:15:28.174Z,8.00
2019-02-19T09:17:56.777Z,7.53
2019-02-19T09:20:25.632Z,8.47
2019-02-19T09:22:54.169Z,8.70
2019-02-19T09:25:22.687Z,7.97
2019-02-19T09:27:51.234Z,7.83
2019-02-19T09:30:19.844Z,8.27
2019-02-19T09:32:48.352Z,8.85
2019-02-19T09:35:16.914Z,8.70
2019-02-19T09:37:45.473Z,8.30
2019-02-19T09:40:14.065Z,8.77
2019-02-19T09:42:42.607Z,8.20
2019-02-19T09:45:11.526Z,7.70
2019-02-19T09:47:40.061Z,7.20
2019-02-19T09:50:10.279Z,8.67
2019-02-19T09:52:38.851Z,7.23
2019-02-19T09:55:08.134Z,8.00
2019-02-19T09:57:36.727Z,7.20
2019-02-19T10:00:13.786Z,8.20
2019-02-19T10:02:43.840Z,8.47
2019-02-19T10:05:12.612Z,7.70
2019-02-19T10:07:41.149Z,7.63
2019-02-19T10:10:18.243Z,7.07
2019-02-19T10:12:46.755Z,9.38
2019-02-19T10:15:15.463Z,7.93
2019-02-19T10:17:44.049Z,7.93
2019-02-19T10:20:13.485Z,7.63
2019-02-19T10:22:42.163Z,7.87
2019-02-19T10:25:14.953Z,8.03
2019-02-19T10:27:43.514Z,8.53
2019-02-19T10:30:17.480Z,7.83
2019-02-19T10:32:46.056Z,7.87
2019-02-19T10:35:14.613Z,8.17
2019-02-19T10:37:43.184Z,7.77
2019-02-19T10:40:17.468Z,7.03
2019-02-19T10:42:46.018Z,7.50
2019-02-19T10:45:19.786Z,8.13
2019-02-19T10:47:48.739Z,6.53
2019-02-19T10:50:17.594Z,7.20
2019-02-19T10:52:46.701Z,7.90
2019-02-19T10:55:15.314Z,6.70
2019-02-19T10:57:43.834Z,7.20
2019-02-19T11:00:19.985Z,7.27
2019-02-19T11:02:48.597Z,7.87
2019-02-19T11:05:17.257Z,9.33
2019-02-19T11:07:45.840Z,8.97
2019-02-19T11:10:15.261Z,8.47
2019-02-19T11:12:43.843Z,10.20
2019-02-19T11:15:14.039Z,8.77
2019-02-19T11:17:42.793Z,9.60
2019-02-19T11:20:19.253Z,9.13
2019-02-19T11:22:47.883Z,9.70
2019-02-19T11:25:16.403Z,10.13
2019-02-19T11:27:44.945Z,9.30
2019-02-19T11:30:16.244Z,8.73
2019-02-19T11:32:45.318Z,8.80
2019-02-19T11:35:13.883Z,8.13
2019-02-19T11:37:42.527Z,7.70
2019-02-19T11:40:14.692Z,7.77
2019-02-19T11:42:43.521Z,7.97
2019-02-19T11:45:17.517Z,7.07
2019-02-19T11:47:46.062Z,7.40
2019-02-19T11:50:14.600Z,7.17
2019-02-19T11:52:43.189Z,7.83
2019-02-19T11:55:19.097Z,7.33
2019-02-19T11:57:47.722Z,7.30
2019-02-19T12:00:18.428Z,7.60
2019-02-19T12:02:47.010Z,8.10
2019-02-19T12:05:15.939Z,7.77
2019-02-19T12:07:44.492Z,7.73
2019-02-19T12:10:13.084Z,7.53
2019-02-19T12:12:41.703Z,8.47
2019-02-19T12:15:13.677Z,8.33
2019-02-19T12:17:42.393Z,7.63
2019-02-19T12:20:12.614Z,8.60
2019-02-19T12:22:41.232Z,7.30
2019-02-19T12:25:10.165Z,7.93
2019-02-19T12:27:38.710Z,8.30
2019-02-19T12:30:10.802Z,8.80
2019-02-19T12:32:39.452Z,9.00
2019-02-19T12:35:08.937Z,8.77
2019-02-19T12:37:37.441Z,8.23
2019-02-19T12:40:09.825Z,8.70
2019-02-19T12:42:38.384Z,8.70
2019-02-19T12:45:10.136Z,8.83
2019-02-19T12:47:38.791Z,8.53
2019-02-19T12:50:12.476Z,8.23
2019-02-19T12:52:41.091Z,8.37
2019-02-19T12:55:10.545Z,7.60
2019-02-19T12:57:39.106Z,9.35
2019-02-19T13:00:12.849Z,8.17
2019-02-19T13:02:41.430Z,9.20
2019-02-19T13:05:11.422Z,8.50
2019-02-19T13:07:40.008Z,9.63
2019-02-19T13:10:12.637Z,8.60
2019-02-19T13:12:41.538Z,10.43
2019-02-19T13:15:13.116Z,9.53
2019-02-19T13:17:41.657Z,8.93
2019-02-19T13:20:12.490Z,9.03
2019-02-19T13:22:41.129Z,9.40
2019-02-19T13:25:11.212Z,8.03
2019-02-19T13:27:39.962Z,8.70
2019-02-19T13:30:14.185Z,9.20
2019-02-19T13:32:42.727Z,8.83
2019-02-19T13:35:13.205Z,8.33
2019-02-19T13:37:41.762Z,8.37
2019-02-19T13:40:12.699Z,8.13
2019-02-19T13:42:41.276Z,9.60
2019-02-19T13:45:12.382Z,8.10
2019-02-19T13:47:40.872Z,8.20
2019-02-19T13:50:23.972Z,7.10
2019-02-19T13:53:09.586Z,8.70
2019-02-19T13:55:39.997Z,7.83
2019-02-19T13:58:08.622Z,8.37
2019-02-19T14:00:41.564Z,8.00
2019-02-19T14:03:10.148Z,8.43
2019-02-19T14:05:38.689Z,7.53
2019-02-19T14:08:14.312Z,7.67
2019-02-19T14:10:37.568Z,8.63
2019-02-19T14:13:06.186Z,7.73
2019-02-19T14:15:42.577Z,7.67
2019-02-19T14:18:12.758Z,7.27
2019-02-19T14:20:48.642Z,7.10
2019-02-19T14:23:21.612Z,7.80
2019-02-19T14:26:08.190Z,8.10
2019-02-19T14:28:40.828Z,8.10
2019-02-19T14:31:27.450Z,7.87
2019-02-19T14:34:03.351Z,7.47
2019-02-19T14:36:50.045Z,7.30
2019-02-19T14:39:36.396Z,6.70
2019-02-19T14:42:06.598Z,7.67
2019-02-19T14:44:52.980Z,7.30
2019-02-19T14:47:23.204Z,7.73
2019-02-19T14:50:02.058Z,7.33
2019-02-19T14:52:47.161Z,7.13
2019-02-19T14:55:17.348Z,6.90
2019-02-19T14:57:47.552Z,6.77
2019-02-19T15:00:26.458Z,7.13
2019-02-19T15:02:56.643Z,7.90
2019-02-19T15:05:43.021Z,7.33
2019-02-19T15:08:13.482Z,7.43
2019-02-19T15:10:52.916Z,7.73
2019-02-19T15:13:39.507Z,8.30
2019-02-19T15:16:26.258Z,8.53
2019-02-19T15:19:08.468Z,7.97
2019-02-19T15:21:44.396Z,8.87
2019-02-19T15:24:18.968Z,7.87
2019-02-19T15:26:52.333Z,7.60
2019-02-19T15:29:25.225Z,8.47
2019-02-19T15:31:55.429Z,8.70
2019-02-19T15:34:28.591Z,8.77
2019-02-19T15:37:14.059Z,8.93
2019-02-19T15:40:00.864Z,8.87
2019-02-19T15:42:40.332Z,8.37
2019-02-19T15:45:22.871Z,8.87
2019-02-19T15:47:56.379Z,8.53
2019-02-19T15:50:43.273Z,8.90
2019-02-19T15:53:19.547Z,8.90
2019-02-19T15:56:04.637Z,8.70
2019-02-19T15:58:37.558Z,9.33
2019-02-19T16:01:23.577Z,9.63
2019-02-19T16:03:53.779Z,8.50
2019-02-19T16:06:23.981Z,9.70
2019-02-19T16:09:00.180Z,9.73
2019-02-19T16:11:42.430Z,8.63
2019-02-19T16:14:25.332Z,9.87
2019-02-19T16:16:55.519Z,9.50
2019-02-19T16:19:28.393Z,9.43
2019-02-19T16:22:10.591Z,7.83
2019-02-19T16:24:58.892Z,9.27
2019-02-19T16:27:29.378Z,9.33
2019-02-19T16:30:02.370Z,9.37
2019-02-19T16:32:35.708Z,9.80
2019-02-19T16:35:06.880Z,9.37
2019-02-19T16:37:46.056Z,10.13
2019-02-19T16:40:22.398Z,9.33
2019-02-19T16:42:55.289Z,9.43
2019-02-19T16:45:28.401Z,8.70
2019-02-19T16:48:10.373Z,8.87
2019-02-19T16:50:40.575Z,10.27
2019-02-19T16:53:11.054Z,9.20
2019-02-19T16:55:50.493Z,10.17
2019-02-19T16:58:35.432Z,9.50
2019-02-19T17:01:10.654Z,10.17
2019-02-19T17:03:46.877Z,9.07
2019-02-19T17:06:33.370Z,9.97
2019-02-19T17:09:03.575Z,9.03
2019-02-19T17:11:50.448Z,10.17
2019-02-19T17:14:20.973Z,9.93
2019-02-19T17:16:51.180Z,9.70
2019-02-19T17:19:21.387Z,9.60
2019-02-19T17:21:51.582Z,9.60
2019-02-19T17:24:27.713Z,10.33
2019-02-19T17:27:00.807Z,10.60
2019-02-19T17:29:43.105Z,9.30
2019-02-19T17:32:15.744Z,10.27
2019-02-19T17:34:45.929Z,9.87
2019-02-19T17:37:16.161Z,9.47
2019-02-19T17:39:52.426Z,9.57
2019-02-19T17:42:38.876Z,9.63
2019-02-19T17:45:26.962Z,9.40
2019-02-19T17:47:59.914Z,9.50
2019-02-19T17:50:39.013Z,9.13
2019-02-19T17:53:09.176Z,8.73
2019-02-19T17:55:42.107Z,11.10
2019-02-19T17:58:31.290Z,9.37
2019-02-19T18:01:01.474Z,9.70
2019-02-19T18:03:31.696Z,9.57
2019-02-19T18:06:05.029Z,10.63
2019-02-19T18:08:35.197Z,10.30
2019-02-19T18:11:14.187Z,11.03
2019-02-19T18:13:44.387Z,10.20
2019-02-19T18:16:17.326Z,9.80
2019-02-19T18:18:52.330Z,8.93
2019-02-19T18:21:21.081Z,10.00
2019-02-19T18:23:49.645Z,11.23
2019-02-19T18:26:18.206Z,9.93
2019-02-19T18:28:46.781Z,10.73
2019-02-19T18:31:15.334Z,10.50
2019-02-19T18:33:43.923Z,10.47
2019-02-19T18:36:13.105Z,10.50
2019-02-19T18:38:41.620Z,10.10
2019-02-19T18:41:10.274Z,10.97
2019-02-19T18:43:39.163Z,9.93
2019-02-19T18:46:07.870Z,10.53
2019-02-19T18:48:36.402Z,8.90
2019-02-19T18:51:05.039Z,11.33
2019-02-19T18:53:33.627Z,11.33
2019-02-19T18:56:02.195Z,10.60
2019-02-19T18:58:30.765Z,10.47
2019-02-19T19:00:59.415Z,12.73
2019-02-19T19:03:27.965Z,10.80
2019-02-19T19:05:56.547Z,11.57
2019-02-19T19:08:25.085Z,10.57
2019-02-19T19:10:53.581Z,9.93
2019-02-19T19:13:22.085Z,10.17
2019-02-19T19:15:50.937Z,10.27
2019-02-19T19:18:19.681Z,10.10
2019-02-19T19:20:48.289Z,10.47
2019-02-19T19:23:16.850Z,9.90
2019-02-19T19:25:45.701Z,10.27
2019-02-19T19:28:14.270Z,10.27
2019-02-19T19:30:42.812Z,9.87
2019-02-19T19:33:11.332Z,9.43
2019-02-19T19:35:40.139Z,10.40
2019-02-19T19:38:08.697Z,10.47
2019-02-19T19:40:37.282Z,10.03
2019-02-19T19:43:05.841Z,10.37
2019-02-19T19:45:34.471Z,10.03
2019-02-19T19:48:03.041Z,10.30
2019-02-19T19:50:31.647Z,10.27
2019-02-19T19:53:00.550Z,9.93
2019-02-19T19:55:29.288Z,10.07
2019-02-19T19:57:58.095Z,10.80
2019-02-19T20:00:27.218Z,9.53
2019-02-19T20:02:56.616Z,10.10
2019-02-19T20:05:25.509Z,10.23
2019-02-19T20:07:54.373Z,11.33
2019-02-19T20:10:23.671Z,11.20
2019-02-19T20:12:52.588Z,9.60
2019-02-19T20:15:21.735Z,9.87
2019-02-19T20:17:50.895Z,10.60
2019-02-19T20:20:20.019Z,10.53
2019-02-19T20:22:49.064Z,10.63
2019-02-19T20:25:18.098Z,10.33
2019-02-19T20:27:47.154Z,10.27
2019-02-19T20:30:16.944Z,10.23
2019-02-19T20:32:45.989Z,10.00
2019-02-19T20:35:14.811Z,9.43
2019-02-19T20:37:43.828Z,10.80
2019-02-19T20:40:13.013Z,10.73
2019-02-19T20:42:41.727Z,9.83
2019-02-19T20:45:13.689Z,10.07
2019-02-19T20:47:42.274Z,10.60
2019-02-19T20:50:11.951Z,9.73
2019-02-19T20:52:40.545Z,9.93
2019-02-19T20:55:11.193Z,10.40
2019-02-19T20:57:39.773Z,10.23
2019-02-19T21:00:16.930Z,9.87
2019-02-19T21:02:45.759Z,10.07
2019-02-19T21:05:14.334Z,9.20
2019-02-19T21:07:43.291Z,10.30
2019-02-19T21:10:21.921Z,10.40
2019-02-19T21:12:50.505Z,9.30
2019-02-19T21:15:19.350Z,10.27
2019-02-19T21:17:48.160Z,10.43
2019-02-19T21:20:16.812Z,9.83
2019-02-19T21:22:45.348Z,9.87
2019-02-19T21:25:13.916Z,10.28
2019-02-19T21:27:42.458Z,10.30
2019-02-19T21:30:13.381Z,10.37
2019-02-19T21:32:42.315Z,10.60
2019-02-19T21:35:11.209Z,9.97
2019-02-19T21:37:39.706Z,10.77
2019-02-19T21:40:13.260Z,10.57
2019-02-19T21:42:41.815Z,11.53
2019-02-19T21:45:14.861Z,12.87
2019-02-19T21:47:43.395Z,11.73
2019-02-19T21:50:15.399Z,12.60
2019-02-19T21:52:43.618Z,11.27
2019-02-19T21:55:12.920Z,12.97
2019-02-19T21:57:41.498Z,12.13
2019-02-19T22:00:17.502Z,11.70
2019-02-19T22:02:46.046Z,14.25
2019-02-19T22:05:14.696Z,12.60
2019-02-19T22:07:43.236Z,12.93
2019-02-19T22:10:15.182Z,13.53
2019-02-19T22:12:43.768Z,14.00
2019-02-19T22:15:14.610Z,12.57
2019-02-19T22:17:43.342Z,11.00
2019-02-19T22:20:25.826Z,12.60
2019-02-19T22:22:54.374Z,13.07
2019-02-19T22:25:22.972Z,12.30
2019-02-19T22:27:51.517Z,12.00
2019-02-19T22:30:19.989Z,12.80
2019-02-19T22:32:48.499Z,13.90
2019-02-19T22:35:17.050Z,13.63
2019-02-19T22:37:45.657Z,12.20
2019-02-19T22:40:14.219Z,12.03
2019-02-19T22:42:42.760Z,11.67
2019-02-19T22:45:11.372Z,11.87
2019-02-19T22:47:40.315Z,12.43
2019-02-19T22:50:09.921Z,13.27
2019-02-19T22:52:38.519Z,12.77
2019-02-19T22:55:13.656Z,12.20
2019-02-19T22:57:42.246Z,12.33
2019-02-19T23:00:34.425Z,11.83
2019-02-19T23:03:03.766Z,10.73
2019-02-19T23:05:32.973Z,10.17
2019-02-19T23:08:01.578Z,9.73
2019-02-19T23:10:30.529Z,10.20
2019-02-19T23:12:59.016Z,9.83
2019-02-19T23:15:27.565Z,11.63
2019-02-19T23:17:56.076Z,8.60
2019-02-19T23:20:24.640Z,11.90
2019-02-19T23:22:53.200Z,10.90
2019-02-19T23:25:22.040Z,11.03
2019-02-19T23:27:50.597Z,10.13
2019-02-19T23:30:19.426Z,10.20
2019-02-19T23:32:48.011Z,9.57
2019-02-19T23:35:23.972Z,9.10
2019-02-19T23:37:52.535Z,9.63
2019-02-19T23:40:21.150Z,9.37
2019-02-19T23:42:49.765Z,8.67
2019-02-19T23:45:18.314Z,9.53
2019-02-19T23:47:46.905Z,8.53
2019-02-19T23:50:15.464Z,8.30
2019-02-19T23:52:44.355Z,8.23
2019-02-19T23:55:12.936Z,8.30
2019-02-19T23:57:41.482Z,8.80
